sensor_id;sensor_type;location;lat;lon;timestamp;P1;durP1;ratioP1;P2;durP2;ratioP2
9667;SDS011;4872;48.316;10.650;2022-10-16T04:11:49;2.87;;;2.20;;
9667;SDS011;4872;48.316;10.650;2022-10-16T04:14:15;4.03;;;1.90;;
9667;SDS011;4872;48.316;10.650;2022-10-16T04:16:42;3.77;;;1.90;;
9667;SDS011;4872;48.316;10.650;2022-10-16T04:19:09;3.57;;;2.20;;
9667;SDS011;4872;48.316;10.650;2022-10-16T04:21:36;6.60;;;2.23;;
9667;SDS011;4872;48.316;10.650;2022-10-16T04:24:03;3.03;;;1.93;;
9667;SDS011;4872;48.316;10.650;2022-10-16T04:26:30;3.80;;;2.07;;
9667;SDS011;4872;48.316;10.650;2022-10-16T04:28:59;2.57;;;2.10;;
9667;SDS011;4872;48.316;10.650;2022-10-16T04:31:25;4.00;;;2.27;;
9667;SDS011;4872;48.316;10.650;2022-10-16T04:33:52;3.53;;;2.60;;
9667;SDS011;4872;48.316;10.650;2022-10-16T04:36:19;4.90;;;2.13;;
9667;SDS011;4872;48.316;10.650;2022-10-16T04:38:46;3.53;;;2.10;;
9667;SDS011;4872;48.316;10.650;2022-10-16T04:41:12;3.07;;;2.40;;
9667;SDS011;4872;48.316;10.650;2022-10-16T04:43:39;7.70;;;2.63;;
9667;SDS011;4872;48.316;10.650;2022-10-16T04:46:07;5.87;;;2.30;;
9667;SDS011;4872;48.316;10.650;2022-10-16T04:48:35;5.60;;;2.80;;
9667;SDS011;4872;48.316;10.650;2022-10-16T04:51:02;3.77;;;2.20;;
9667;SDS011;4872;48.316;10.650;2022-10-16T04:53:29;3.83;;;2.00;;
9667;SDS011;4872;48.316;10.650;2022-10-16T04:55:56;4.90;;;2.30;;
9667;SDS011;4872;48.316;10.650;2022-10-16T04:58:23;2.70;;;2.23;;
9667;SDS011;4872;48.316;10.650;2022-10-16T05:00:49;3.90;;;2.47;;
9667;SDS011;4872;48.316;10.650;2022-10-16T05:03:17;3.30;;;2.10;;
9667;SDS011;4872;48.316;10.650;2022-10-16T05:05:44;3.83;;;2.00;;
9667;SDS011;4872;48.316;10.650;2022-10-16T05:08:12;3.07;;;2.17;;
9667;SDS011;4872;48.316;10.650;2022-10-16T05:10:40;3.53;;;1.70;;
9667;SDS011;4872;48.316;10.650;2022-10-16T05:13:08;2.20;;;1.83;;
9667;SDS011;4872;48.316;10.650;2022-10-16T05:15:35;3.00;;;2.00;;
9667;SDS011;4872;48.316;10.650;2022-10-16T05:18:02;2.50;;;1.87;;
9667;SDS011;4872;48.316;10.650;2022-10-16T05:20:30;5.40;;;2.00;;
9667;SDS011;4872;48.316;10.650;2022-10-16T05:22:57;4.20;;;2.07;;
9667;SDS011;4872;48.316;10.650;2022-10-16T05:25:24;3.10;;;1.77;;
9667;SDS011;4872;48.316;10.650;2022-10-16T05:27:51;2.57;;;2.07;;
9667;SDS011;4872;48.316;10.650;2022-10-16T05:30:17;3.20;;;1.90;;
9667;SDS011;4872;48.316;10.650;2022-10-16T05:32:46;4.17;;;2.07;;
9667;SDS011;4872;48.316;10.650;2022-10-16T05:35:13;2.40;;;2.20;;
9667;SDS011;4872;48.316;10.650;2022-10-16T05:37:42;4.30;;;1.80;;
9667;SDS011;4872;48.316;10.650;2022-10-16T05:40:09;3.27;;;1.80;;
9667;SDS011;4872;48.316;10.650;2022-10-16T05:42:37;3.33;;;2.00;;
9667;SDS011;4872;48.316;10.650;2022-10-16T05:45:04;2.90;;;2.17;;
9667;SDS011;4872;48.316;10.650;2022-10-16T05:47:32;6.03;;;2.10;;
9667;SDS011;4872;48.316;10.650;2022-10-16T05:49:59;5.17;;;2.60;;
9667;SDS011;4872;48.316;10.650;2022-10-16T05:52:26;4.73;;;2.70;;
9667;SDS011;4872;48.316;10.650;2022-10-16T05:54:54;6.40;;;2.63;;
9667;SDS011;4872;48.316;10.650;2022-10-16T05:57:21;2.93;;;2.20;;
9667;SDS011;4872;48.316;10.650;2022-10-16T05:59:48;6.50;;;3.17;;
9667;SDS011;4872;48.316;10.650;2022-10-16T06:02:14;4.33;;;2.57;;
9667;SDS011;4872;48.316;10.650;2022-10-16T06:04:41;3.77;;;2.70;;
9667;SDS011;4872;48.316;10.650;2022-10-16T06:07:08;3.43;;;2.80;;
9667;SDS011;4872;48.316;10.650;2022-10-16T06:09:35;3.60;;;2.70;;
9667;SDS011;4872;48.316;10.650;2022-10-16T06:12:04;2.90;;;2.50;;
9667;SDS011;4872;48.316;10.650;2022-10-16T06:14:30;4.60;;;2.57;;
9667;SDS011;4872;48.316;10.650;2022-10-16T06:16:57;4.30;;;2.87;;
9667;SDS011;4872;48.316;10.650;2022-10-16T06:19:24;3.00;;;2.43;;
9667;SDS011;4872;48.316;10.650;2022-10-16T06:21:51;5.43;;;2.10;;
9667;SDS011;4872;48.316;10.650;2022-10-16T06:24:18;3.50;;;2.00;;
9667;SDS011;4872;48.316;10.650;2022-10-16T06:26:44;2.17;;;1.97;;
9667;SDS011;4872;48.316;10.650;2022-10-16T06:29:13;5.00;;;2.27;;
9667;SDS011;4872;48.316;10.650;2022-10-16T06:31:39;3.10;;;1.90;;
9667;SDS011;4872;48.316;10.650;2022-10-16T06:34:08;2.30;;;2.10;;
9667;SDS011;4872;48.316;10.650;2022-10-16T06:36:36;3.00;;;1.70;;
9667;SDS011;4872;48.316;10.650;2022-10-16T06:39:03;2.83;;;2.07;;
9667;SDS011;4872;48.316;10.650;2022-10-16T06:41:32;2.73;;;1.80;;
9667;SDS011;4872;48.316;10.650;2022-10-16T06:43:59;2.50;;;1.87;;
9667;SDS011;4872;48.316;10.650;2022-10-16T06:46:28;3.77;;;1.70;;
9667;SDS011;4872;48.316;10.650;2022-10-16T06:48:54;4.03;;;1.60;;
9667;SDS011;4872;48.316;10.650;2022-10-16T06:51:21;3.27;;;1.50;;
9667;SDS011;4872;48.316;10.650;2022-10-16T06:53:50;3.53;;;1.90;;
9667;SDS011;4872;48.316;10.650;2022-10-16T06:56:20;2.63;;;1.60;;
9667;SDS011;4872;48.316;10.650;2022-10-16T06:58:48;3.80;;;1.80;;
9667;SDS011;4872;48.316;10.650;2022-10-16T07:01:16;2.23;;;1.40;;
9667;SDS011;4872;48.316;10.650;2022-10-16T07:03:46;3.40;;;1.73;;
9667;SDS011;4872;48.316;10.650;2022-10-16T07:06:14;4.93;;;1.67;;
9667;SDS011;4872;48.316;10.650;2022-10-16T07:08:43;2.57;;;1.37;;
9667;SDS011;4872;48.316;10.650;2022-10-16T07:11:12;4.13;;;1.20;;
9667;SDS011;4872;48.316;10.650;2022-10-16T07:13:40;1.50;;;1.40;;
9667;SDS011;4872;48.316;10.650;2022-10-16T07:16:09;1.40;;;1.30;;
9667;SDS011;4872;48.316;10.650;2022-10-16T07:18:37;4.03;;;1.70;;
9667;SDS011;4872;48.316;10.650;2022-10-16T07:21:07;3.63;;;2.57;;
9667;SDS011;4872;48.316;10.650;2022-10-16T07:23:35;4.13;;;2.80;;
9667;SDS011;4872;48.316;10.650;2022-10-16T07:26:01;4.13;;;3.27;;
9667;SDS011;4872;48.316;10.650;2022-10-16T07:28:28;6.33;;;3.30;;
9667;SDS011;4872;48.316;10.650;2022-10-16T07:30:59;4.40;;;3.20;;
9667;SDS011;4872;48.316;10.650;2022-10-16T07:33:27;5.40;;;3.33;;
9667;SDS011;4872;48.316;10.650;2022-10-16T07:35:54;5.37;;;3.57;;
9667;SDS011;4872;48.316;10.650;2022-10-16T07:38:22;7.53;;;4.37;;
9667;SDS011;4872;48.316;10.650;2022-10-16T07:40:55;4.80;;;4.23;;
9667;SDS011;4872;48.316;10.650;2022-10-16T07:43:22;5.47;;;3.23;;
9667;SDS011;4872;48.316;10.650;2022-10-16T07:45:50;4.37;;;3.47;;
9667;SDS011;4872;48.316;10.650;2022-10-16T07:48:17;3.50;;;2.80;;
9667;SDS011;4872;48.316;10.650;2022-10-16T07:50:44;4.23;;;2.97;;
9667;SDS011;4872;48.316;10.650;2022-10-16T07:53:11;3.07;;;2.60;;
9667;SDS011;4872;48.316;10.650;2022-10-16T07:55:40;4.57;;;2.37;;
9667;SDS011;4872;48.316;10.650;2022-10-16T07:58:06;5.87;;;2.53;;
9667;SDS011;4872;48.316;10.650;2022-10-16T08:00:35;5.90;;;2.90;;
9667;SDS011;4872;48.316;10.650;2022-10-16T08:03:02;4.83;;;2.50;;
9667;SDS011;4872;48.316;10.650;2022-10-16T08:05:30;4.43;;;2.30;;
9667;SDS011;4872;48.316;10.650;2022-10-16T08:07:58;3.60;;;2.10;;
9667;SDS011;4872;48.316;10.650;2022-10-16T08:10:25;3.33;;;2.17;;
9667;SDS011;4872;48.316;10.650;2022-10-16T08:12:54;3.60;;;2.27;;
9667;SDS011;4872;48.316;10.650;2022-10-16T08:15:21;5.03;;;2.60;;
9667;SDS011;4872;48.316;10.650;2022-10-16T08:17:55;2.40;;;2.20;;
9667;SDS011;4872;48.316;10.650;2022-10-16T08:20:23;3.00;;;1.63;;
9667;SDS011;4872;48.316;10.650;2022-10-16T08:22:50;1.43;;;1.33;;
9667;SDS011;4872;48.316;10.650;2022-10-16T08:25:17;2.10;;;1.40;;
9667;SDS011;4872;48.316;10.650;2022-10-16T08:27:43;2.53;;;1.30;;
9667;SDS011;4872;48.316;10.650;2022-10-16T08:30:12;2.70;;;1.17;;
9667;SDS011;4872;48.316;10.650;2022-10-16T08:32:39;1.23;;;1.13;;
9667;SDS011;4872;48.316;10.650;2022-10-16T08:35:07;1.87;;;1.30;;
9667;SDS011;4872;48.316;10.650;2022-10-16T08:37:35;2.93;;;1.20;;
9667;SDS011;4872;48.316;10.650;2022-10-16T08:40:03;2.30;;;1.20;;
9667;SDS011;4872;48.316;10.650;2022-10-16T08:42:38;1.33;;;1.10;;
9667;SDS011;4872;48.316;10.650;2022-10-16T08:45:27;2.03;;;0.90;;
9667;SDS011;4872;48.316;10.650;2022-10-16T08:48:02;2.33;;;1.00;;
9667;SDS011;4872;48.316;10.650;2022-10-16T08:50:37;0.93;;;0.90;;
9667;SDS011;4872;48.316;10.650;2022-10-16T08:53:05;2.83;;;2.20;;
9667;SDS011;4872;48.316;10.650;2022-10-16T08:55:38;3.10;;;2.53;;
9667;SDS011;4872;48.316;10.650;2022-10-16T08:58:10;3.50;;;2.23;;
9667;SDS011;4872;48.316;10.650;2022-10-16T09:00:40;4.57;;;2.20;;
9667;SDS011;4872;48.316;10.650;2022-10-16T09:03:11;9.90;;;4.60;;
9667;SDS011;4872;48.316;10.650;2022-10-16T09:05:46;13.33;;;7.03;;
9667;SDS011;4872;48.316;10.650;2022-10-16T09:08:38;15.97;;;9.47;;
9667;SDS011;4872;48.316;10.650;2022-10-16T09:11:14;19.57;;;10.07;;
9667;SDS011;4872;48.316;10.650;2022-10-16T09:13:48;13.10;;;7.63;;
9667;SDS011;4872;48.316;10.650;2022-10-16T09:16:21;14.67;;;7.30;;
9667;SDS011;4872;48.316;10.650;2022-10-16T09:18:54;9.30;;;5.20;;
9667;SDS011;4872;48.316;10.650;2022-10-16T09:21:27;2.97;;;2.07;;
9667;SDS011;4872;48.316;10.650;2022-10-16T09:23:57;1.57;;;1.20;;
9667;SDS011;4872;48.316;10.650;2022-10-16T09:26:30;2.40;;;1.00;;
9667;SDS011;4872;48.316;10.650;2022-10-16T09:28:57;1.20;;;1.07;;
9667;SDS011;4872;48.316;10.650;2022-10-16T09:31:25;1.27;;;1.17;;
9667;SDS011;4872;48.316;10.650;2022-10-16T09:33:52;1.40;;;1.20;;
9667;SDS011;4872;48.316;10.650;2022-10-16T09:36:21;2.03;;;1.07;;
9667;SDS011;4872;48.316;10.650;2022-10-16T09:39:01;1.30;;;1.20;;
9667;SDS011;4872;48.316;10.650;2022-10-16T09:41:29;1.70;;;0.90;;
9667;SDS011;4872;48.316;10.650;2022-10-16T09:43:56;1.00;;;0.90;;
9667;SDS011;4872;48.316;10.650;2022-10-16T09:46:27;2.00;;;1.10;;
9667;SDS011;4872;48.316;10.650;2022-10-16T09:48:56;1.83;;;1.10;;
9667;SDS011;4872;48.316;10.650;2022-10-16T09:51:24;1.40;;;1.30;;
9667;SDS011;4872;48.316;10.650;2022-10-16T09:53:56;2.80;;;0.93;;
9667;SDS011;4872;48.316;10.650;2022-10-16T09:56:25;2.63;;;1.13;;
9667;SDS011;4872;48.316;10.650;2022-10-16T09:58:54;1.17;;;1.07;;
9667;SDS011;4872;48.316;10.650;2022-10-16T10:01:22;1.10;;;1.00;;
9667;SDS011;4872;48.316;10.650;2022-10-16T10:03:56;1.83;;;1.30;;
9667;SDS011;4872;48.316;10.650;2022-10-16T10:06:27;1.97;;;0.97;;
9667;SDS011;4872;48.316;10.650;2022-10-16T10:08:56;1.83;;;1.10;;
9667;SDS011;4872;48.316;10.650;2022-10-16T10:14:27;3.77;;;1.10;;
9667;SDS011;4872;48.316;10.650;2022-10-16T10:17:06;2.20;;;1.03;;
9667;SDS011;4872;48.316;10.650;2022-10-16T10:19:41;2.90;;;1.20;;
9667;SDS011;4872;48.316;10.650;2022-10-16T10:22:29;1.53;;;1.00;;
9667;SDS011;4872;48.316;10.650;2022-10-16T10:25:08;1.07;;;1.07;;
9667;SDS011;4872;48.316;10.650;2022-10-16T10:27:46;2.03;;;1.13;;
9667;SDS011;4872;48.316;10.650;2022-10-16T10:30:47;2.63;;;1.20;;
9667;SDS011;4872;48.316;10.650;2022-10-16T10:33:24;2.20;;;1.10;;
9667;SDS011;4872;48.316;10.650;2022-10-16T10:35:59;1.40;;;1.20;;
9667;SDS011;4872;48.316;10.650;2022-10-16T10:38:37;2.70;;;1.47;;
9667;SDS011;4872;48.316;10.650;2022-10-16T10:41:16;2.50;;;1.30;;
9667;SDS011;4872;48.316;10.650;2022-10-16T10:44:07;1.50;;;1.00;;
9667;SDS011;4872;48.316;10.650;2022-10-16T10:46:42;3.80;;;1.33;;
9667;SDS011;4872;48.316;10.650;2022-10-16T10:49:19;2.77;;;1.20;;
9667;SDS011;4872;48.316;10.650;2022-10-16T10:52:10;1.33;;;1.20;;
9667;SDS011;4872;48.316;10.650;2022-10-16T10:54:46;1.87;;;1.20;;
9667;SDS011;4872;48.316;10.650;2022-10-16T10:57:21;1.33;;;1.20;;
9667;SDS011;4872;48.316;10.650;2022-10-16T10:59:58;1.77;;;1.50;;
9667;SDS011;4872;48.316;10.650;2022-10-16T11:02:41;1.70;;;1.40;;
9667;SDS011;4872;48.316;10.650;2022-10-16T11:08:08;2.30;;;1.20;;
9667;SDS011;4872;48.316;10.650;2022-10-16T11:10:43;2.27;;;1.53;;
9667;SDS011;4872;48.316;10.650;2022-10-16T11:13:19;3.17;;;1.40;;
9667;SDS011;4872;48.316;10.650;2022-10-16T11:15:52;2.87;;;1.60;;
9667;SDS011;4872;48.316;10.650;2022-10-16T11:18:24;2.50;;;1.40;;
9667;SDS011;4872;48.316;10.650;2022-10-16T11:20:56;5.20;;;1.50;;
9667;SDS011;4872;48.316;10.650;2022-10-16T11:23:29;2.13;;;1.27;;
9667;SDS011;4872;48.316;10.650;2022-10-16T11:26:00;3.07;;;1.80;;
9667;SDS011;4872;48.316;10.650;2022-10-16T11:28:32;2.97;;;1.60;;
9667;SDS011;4872;48.316;10.650;2022-10-16T11:31:05;1.20;;;1.00;;
9667;SDS011;4872;48.316;10.650;2022-10-16T11:33:37;1.70;;;1.20;;
9667;SDS011;4872;48.316;10.650;2022-10-16T11:36:09;2.17;;;1.07;;
9667;SDS011;4872;48.316;10.650;2022-10-16T11:38:41;1.63;;;1.40;;
9667;SDS011;4872;48.316;10.650;2022-10-16T11:41:17;1.43;;;1.20;;
9667;SDS011;4872;48.316;10.650;2022-10-16T11:43:52;1.43;;;1.17;;
9667;SDS011;4872;48.316;10.650;2022-10-16T11:46:32;1.40;;;1.10;;
9667;SDS011;4872;48.316;10.650;2022-10-16T11:49:03;2.10;;;1.37;;
9667;SDS011;4872;48.316;10.650;2022-10-16T11:51:38;1.37;;;1.17;;
9667;SDS011;4872;48.316;10.650;2022-10-16T11:54:13;1.63;;;1.43;;
9667;SDS011;4872;48.316;10.650;2022-10-16T11:56:47;1.20;;;1.10;;
9667;SDS011;4872;48.316;10.650;2022-10-16T11:59:20;1.03;;;0.90;;
9667;SDS011;4872;48.316;10.650;2022-10-16T12:01:53;2.73;;;1.30;;
9667;SDS011;4872;48.316;10.650;2022-10-16T12:04:45;1.63;;;0.93;;
9667;SDS011;4872;48.316;10.650;2022-10-16T12:07:17;1.30;;;1.10;;
9667;SDS011;4872;48.316;10.650;2022-10-16T12:09:49;1.10;;;1.00;;
9667;SDS011;4872;48.316;10.650;2022-10-16T12:12:24;1.30;;;1.00;;
9667;SDS011;4872;48.316;10.650;2022-10-16T12:14:59;1.70;;;1.20;;
9667;SDS011;4872;48.316;10.650;2022-10-16T12:17:27;1.73;;;1.23;;
9667;SDS011;4872;48.316;10.650;2022-10-16T12:20:12;1.33;;;1.00;;
9667;SDS011;4872;48.316;10.650;2022-10-16T12:22:47;2.37;;;1.10;;
9667;SDS011;4872;48.316;10.650;2022-10-16T12:25:21;3.57;;;1.10;;
9667;SDS011;4872;48.316;10.650;2022-10-16T12:27:53;1.33;;;0.80;;
9667;SDS011;4872;48.316;10.650;2022-10-16T12:30:23;1.37;;;0.87;;
9667;SDS011;4872;48.316;10.650;2022-10-16T12:32:52;1.73;;;0.80;;
9667;SDS011;4872;48.316;10.650;2022-10-16T12:35:21;0.90;;;0.90;;
9667;SDS011;4872;48.316;10.650;2022-10-16T12:37:51;1.30;;;1.13;;
9667;SDS011;4872;48.316;10.650;2022-10-16T12:40:29;1.63;;;1.07;;
9667;SDS011;4872;48.316;10.650;2022-10-16T12:42:58;3.20;;;1.30;;
9667;SDS011;4872;48.316;10.650;2022-10-16T12:45:27;1.50;;;1.07;;
9667;SDS011;4872;48.316;10.650;2022-10-16T12:47:56;0.90;;;0.90;;
9667;SDS011;4872;48.316;10.650;2022-10-16T12:50:28;3.03;;;1.10;;
9667;SDS011;4872;48.316;10.650;2022-10-16T12:52:57;1.20;;;1.10;;
9667;SDS011;4872;48.316;10.650;2022-10-16T12:55:25;1.07;;;1.07;;
9667;SDS011;4872;48.316;10.650;2022-10-16T13:00:48;1.10;;;1.00;;
9667;SDS011;4872;48.316;10.650;2022-10-16T13:03:31;1.10;;;1.00;;
9667;SDS011;4872;48.316;10.650;2022-10-16T13:06:24;2.13;;;1.10;;
9667;SDS011;4872;48.316;10.650;2022-10-16T13:09:02;2.53;;;1.70;;
9667;SDS011;4872;48.316;10.650;2022-10-16T13:11:43;1.57;;;1.23;;
9667;SDS011;4872;48.316;10.650;2022-10-16T13:14:28;2.47;;;1.40;;
9667;SDS011;4872;48.316;10.650;2022-10-16T13:17:09;2.20;;;1.07;;
9667;SDS011;4872;48.316;10.650;2022-10-16T13:19:42;1.33;;;0.90;;
9667;SDS011;4872;48.316;10.650;2022-10-16T13:22:15;1.23;;;1.10;;
9667;SDS011;4872;48.316;10.650;2022-10-16T13:24:48;2.43;;;1.00;;
9667;SDS011;4872;48.316;10.650;2022-10-16T13:27:25;4.93;;;1.50;;
9667;SDS011;4872;48.316;10.650;2022-10-16T13:30:08;1.33;;;0.80;;
9667;SDS011;4872;48.316;10.650;2022-10-16T13:32:38;2.07;;;1.03;;
9667;SDS011;4872;48.316;10.650;2022-10-16T13:35:17;1.13;;;1.03;;
9667;SDS011;4872;48.316;10.650;2022-10-16T13:37:45;1.70;;;1.23;;
9667;SDS011;4872;48.316;10.650;2022-10-16T13:40:17;1.60;;;1.33;;
9667;SDS011;4872;48.316;10.650;2022-10-16T13:42:46;1.20;;;1.10;;
9667;SDS011;4872;48.316;10.650;2022-10-16T13:45:21;1.43;;;1.00;;
9667;SDS011;4872;48.316;10.650;2022-10-16T13:47:50;2.10;;;1.17;;
9667;SDS011;4872;48.316;10.650;2022-10-16T13:50:27;1.23;;;1.13;;
9667;SDS011;4872;48.316;10.650;2022-10-16T13:53:02;1.23;;;0.90;;
9667;SDS011;4872;48.316;10.650;2022-10-16T13:55:30;1.40;;;0.80;;
9667;SDS011;4872;48.316;10.650;2022-10-16T13:58:04;2.67;;;1.20;;
9667;SDS011;4872;48.316;10.650;2022-10-16T14:00:32;1.67;;;1.10;;
9667;SDS011;4872;48.316;10.650;2022-10-16T14:03:01;1.90;;;0.90;;
9667;SDS011;4872;48.316;10.650;2022-10-16T14:05:30;0.93;;;0.93;;
9667;SDS011;4872;48.316;10.650;2022-10-16T14:07:57;2.27;;;1.30;;
9667;SDS011;4872;48.316;10.650;2022-10-16T14:10:25;1.07;;;0.97;;
9667;SDS011;4872;48.316;10.650;2022-10-16T14:12:55;2.50;;;1.30;;
9667;SDS011;4872;48.316;10.650;2022-10-16T14:15:26;1.10;;;0.90;;
9667;SDS011;4872;48.316;10.650;2022-10-16T14:17:56;2.97;;;1.10;;
9667;SDS011;4872;48.316;10.650;2022-10-16T14:20:25;1.83;;;1.00;;
9667;SDS011;4872;48.316;10.650;2022-10-16T14:22:58;2.83;;;1.30;;
9667;SDS011;4872;48.316;10.650;2022-10-16T14:25:27;2.87;;;1.50;;
9667;SDS011;4872;48.316;10.650;2022-10-16T14:27:59;1.77;;;1.10;;
9667;SDS011;4872;48.316;10.650;2022-10-16T14:30:27;3.30;;;1.47;;
9667;SDS011;4872;48.316;10.650;2022-10-16T14:32:57;1.60;;;1.10;;
9667;SDS011;4872;48.316;10.650;2022-10-16T14:35:25;1.73;;;1.13;;
9667;SDS011;4872;48.316;10.650;2022-10-16T14:37:54;1.23;;;0.80;;
9667;SDS011;4872;48.316;10.650;2022-10-16T14:40:23;1.97;;;1.10;;
9667;SDS011;4872;48.316;10.650;2022-10-16T14:42:51;1.43;;;1.00;;
9667;SDS011;4872;48.316;10.650;2022-10-16T14:45:20;1.40;;;1.20;;
9667;SDS011;4872;48.316;10.650;2022-10-16T14:47:52;1.30;;;1.00;;
9667;SDS011;4872;48.316;10.650;2022-10-16T14:50:27;1.87;;;1.00;;
9667;SDS011;4872;48.316;10.650;2022-10-16T14:52:57;2.03;;;1.10;;
9667;SDS011;4872;48.316;10.650;2022-10-16T14:55:27;1.20;;;1.13;;
9667;SDS011;4872;48.316;10.650;2022-10-16T14:57:54;2.00;;;1.00;;
9667;SDS011;4872;48.316;10.650;2022-10-16T15:00:22;1.57;;;1.00;;
9667;SDS011;4872;48.316;10.650;2022-10-16T15:02:50;1.37;;;1.10;;
9667;SDS011;4872;48.316;10.650;2022-10-16T15:05:18;1.40;;;1.03;;
9667;SDS011;4872;48.316;10.650;2022-10-16T15:07:48;1.23;;;1.00;;
9667;SDS011;4872;48.316;10.650;2022-10-16T15:10:15;2.23;;;1.30;;
9667;SDS011;4872;48.316;10.650;2022-10-16T15:12:44;2.40;;;1.10;;
9667;SDS011;4872;48.316;10.650;2022-10-16T15:18:03;3.07;;;1.43;;
9667;SDS011;4872;48.316;10.650;2022-10-16T15:20:31;3.67;;;1.50;;
9667;SDS011;4872;48.316;10.650;2022-10-16T15:23:01;1.97;;;1.30;;
9667;SDS011;4872;48.316;10.650;2022-10-16T15:25:33;2.27;;;1.13;;
9667;SDS011;4872;48.316;10.650;2022-10-16T15:28:03;1.13;;;1.03;;
9667;SDS011;4872;48.316;10.650;2022-10-16T15:30:30;1.43;;;1.20;;
9667;SDS011;4872;48.316;10.650;2022-10-16T15:32:57;2.40;;;1.27;;
9667;SDS011;4872;48.316;10.650;2022-10-16T15:35:24;1.30;;;1.20;;
9667;SDS011;4872;48.316;10.650;2022-10-16T15:37:51;2.40;;;1.10;;
9667;SDS011;4872;48.316;10.650;2022-10-16T15:40:19;2.50;;;1.93;;
9667;SDS011;4872;48.316;10.650;2022-10-16T15:42:47;7.03;;;1.70;;
9667;SDS011;4872;48.316;10.650;2022-10-16T15:45:14;2.27;;;1.20;;
9667;SDS011;4872;48.316;10.650;2022-10-16T15:47:42;1.93;;;1.40;;
9667;SDS011;4872;48.316;10.650;2022-10-16T15:50:09;1.60;;;1.43;;
9667;SDS011;4872;48.316;10.650;2022-10-16T15:52:37;3.97;;;1.50;;
9667;SDS011;4872;48.316;10.650;2022-10-16T15:55:05;1.30;;;1.20;;
9667;SDS011;4872;48.316;10.650;2022-10-16T15:57:34;3.57;;;1.30;;
9667;SDS011;4872;48.316;10.650;2022-10-16T16:00:03;2.97;;;1.40;;
9667;SDS011;4872;48.316;10.650;2022-10-16T16:02:32;2.17;;;1.10;;
9667;SDS011;4872;48.316;10.650;2022-10-16T16:04:59;1.90;;;1.10;;
9667;SDS011;4872;48.316;10.650;2022-10-16T16:07:26;3.07;;;1.60;;
9667;SDS011;4872;48.316;10.650;2022-10-16T16:09:53;3.17;;;2.43;;
9667;SDS011;4872;48.316;10.650;2022-10-16T16:12:20;3.83;;;2.07;;
9667;SDS011;4872;48.316;10.650;2022-10-16T16:14:48;4.20;;;1.70;;
9667;SDS011;4872;48.316;10.650;2022-10-16T16:17:16;2.43;;;1.70;;
9667;SDS011;4872;48.316;10.650;2022-10-16T16:19:43;2.40;;;1.60;;
9667;SDS011;4872;48.316;10.650;2022-10-16T16:22:09;2.87;;;2.00;;
9667;SDS011;4872;48.316;10.650;2022-10-16T16:24:36;3.60;;;2.27;;
9667;SDS011;4872;48.316;10.650;2022-10-16T16:27:03;8.70;;;7.90;;
9667;SDS011;4872;48.316;10.650;2022-10-16T16:29:30;14.00;;;12.50;;
9667;SDS011;4872;48.316;10.650;2022-10-16T16:31:58;13.17;;;10.07;;
9667;SDS011;4872;48.316;10.650;2022-10-16T16:34:25;18.53;;;16.70;;
9667;SDS011;4872;48.316;10.650;2022-10-16T16:36:53;18.80;;;16.80;;
9667;SDS011;4872;48.316;10.650;2022-10-16T16:39:21;18.70;;;16.10;;
9667;SDS011;4872;48.316;10.650;2022-10-16T16:41:47;14.30;;;12.40;;
9667;SDS011;4872;48.316;10.650;2022-10-16T16:44:14;16.57;;;14.60;;
9667;SDS011;4872;48.316;10.650;2022-10-16T16:46:42;19.57;;;14.83;;
9667;SDS011;4872;48.316;10.650;2022-10-16T16:49:12;23.53;;;17.70;;
9667;SDS011;4872;48.316;10.650;2022-10-16T16:51:40;11.40;;;8.73;;
9667;SDS011;4872;48.316;10.650;2022-10-16T16:54:07;5.03;;;3.50;;
9667;SDS011;4872;48.316;10.650;2022-10-16T16:56:35;5.37;;;3.27;;
9667;SDS011;4872;48.316;10.650;2022-10-16T16:59:02;8.83;;;4.63;;
9667;SDS011;4872;48.316;10.650;2022-10-16T17:01:29;6.37;;;3.63;;
9667;SDS011;4872;48.316;10.650;2022-10-16T17:03:57;5.57;;;3.93;;
9667;SDS011;4872;48.316;10.650;2022-10-16T17:06:27;7.43;;;4.27;;
9667;SDS011;4872;48.316;10.650;2022-10-16T17:08:55;5.33;;;4.80;;
9667;SDS011;4872;48.316;10.650;2022-10-16T17:11:23;11.00;;;7.50;;
9667;SDS011;4872;48.316;10.650;2022-10-16T17:13:51;10.87;;;9.00;;
9667;SDS011;4872;48.316;10.650;2022-10-16T17:16:20;13.03;;;8.20;;
9667;SDS011;4872;48.316;10.650;2022-10-16T17:18:47;10.77;;;8.00;;
9667;SDS011;4872;48.316;10.650;2022-10-16T17:21:15;7.30;;;6.60;;
9667;SDS011;4872;48.316;10.650;2022-10-16T17:23:43;6.70;;;6.20;;
9667;SDS011;4872;48.316;10.650;2022-10-16T17:26:10;5.10;;;4.70;;
9667;SDS011;4872;48.316;10.650;2022-10-16T17:28:39;5.00;;;4.47;;
9667;SDS011;4872;48.316;10.650;2022-10-16T17:31:07;5.53;;;4.53;;
9667;SDS011;4872;48.316;10.650;2022-10-16T17:33:35;5.47;;;4.20;;
9667;SDS011;4872;48.316;10.650;2022-10-16T17:36:02;8.70;;;6.80;;
9667;SDS011;4872;48.316;10.650;2022-10-16T17:38:29;9.93;;;7.17;;
9667;SDS011;4872;48.316;10.650;2022-10-16T17:40:57;11.03;;;9.83;;
9667;SDS011;4872;48.316;10.650;2022-10-16T17:43:24;13.13;;;11.50;;
9667;SDS011;4872;48.316;10.650;2022-10-16T17:45:51;16.53;;;10.40;;
9667;SDS011;4872;48.316;10.650;2022-10-16T17:48:18;12.73;;;10.40;;
9667;SDS011;4872;48.316;10.650;2022-10-16T17:50:45;12.60;;;9.90;;
9667;SDS011;4872;48.316;10.650;2022-10-16T17:53:11;12.87;;;8.77;;
9667;SDS011;4872;48.316;10.650;2022-10-16T17:55:38;11.23;;;8.17;;
9667;SDS011;4872;48.316;10.650;2022-10-16T17:58:08;8.20;;;5.13;;
9667;SDS011;4872;48.316;10.650;2022-10-16T18:00:35;11.23;;;7.00;;
9667;SDS011;4872;48.316;10.650;2022-10-16T18:03:01;8.70;;;6.67;;
9667;SDS011;4872;48.316;10.650;2022-10-16T18:05:28;8.97;;;5.77;;
9667;SDS011;4872;48.316;10.650;2022-10-16T18:07:55;10.30;;;5.60;;
9667;SDS011;4872;48.316;10.650;2022-10-16T18:10:22;6.17;;;4.37;;
9667;SDS011;4872;48.316;10.650;2022-10-16T18:12:49;8.03;;;4.87;;
9667;SDS011;4872;48.316;10.650;2022-10-16T18:15:17;7.63;;;4.60;;
9667;SDS011;4872;48.316;10.650;2022-10-16T18:17:44;23.10;;;15.73;;
9667;SDS011;4872;48.316;10.650;2022-10-16T18:20:11;7.80;;;4.57;;
9667;SDS011;4872;48.316;10.650;2022-10-16T18:22:38;7.03;;;4.40;;
9667;SDS011;4872;48.316;10.650;2022-10-16T18:25:05;8.53;;;3.40;;
9667;SDS011;4872;48.316;10.650;2022-10-16T18:27:32;6.30;;;3.97;;
9667;SDS011;4872;48.316;10.650;2022-10-16T18:29:59;4.73;;;3.03;;
9667;SDS011;4872;48.316;10.650;2022-10-16T18:32:27;6.30;;;3.80;;
9667;SDS011;4872;48.316;10.650;2022-10-16T18:34:54;7.17;;;4.47;;
9667;SDS011;4872;48.316;10.650;2022-10-16T18:37:22;8.43;;;5.73;;
9667;SDS011;4872;48.316;10.650;2022-10-16T18:39:48;7.97;;;5.60;;
9667;SDS011;4872;48.316;10.650;2022-10-16T18:42:16;9.87;;;6.60;;
9667;SDS011;4872;48.316;10.650;2022-10-16T18:44:43;10.13;;;6.00;;
9667;SDS011;4872;48.316;10.650;2022-10-16T18:47:10;7.30;;;5.53;;
9667;SDS011;4872;48.316;10.650;2022-10-16T18:49:38;8.43;;;6.50;;
9667;SDS011;4872;48.316;10.650;2022-10-16T18:52:05;9.87;;;5.07;;
9667;SDS011;4872;48.316;10.650;2022-10-16T18:54:32;7.80;;;4.37;;
9667;SDS011;4872;48.316;10.650;2022-10-16T18:57:01;8.03;;;3.20;;
9667;SDS011;4872;48.316;10.650;2022-10-16T18:59:28;8.20;;;3.57;;
9667;SDS011;4872;48.316;10.650;2022-10-16T19:01:55;6.60;;;4.20;;
9667;SDS011;4872;48.316;10.650;2022-10-16T19:04:22;6.20;;;4.23;;
9667;SDS011;4872;48.316;10.650;2022-10-16T19:06:50;5.77;;;4.33;;
9667;SDS011;4872;48.316;10.650;2022-10-16T19:09:19;5.73;;;4.73;;
9667;SDS011;4872;48.316;10.650;2022-10-16T19:11:47;7.70;;;5.20;;
9667;SDS011;4872;48.316;10.650;2022-10-16T19:14:14;11.33;;;6.00;;
9667;SDS011;4872;48.316;10.650;2022-10-16T19:16:42;7.80;;;5.33;;
9667;SDS011;4872;48.316;10.650;2022-10-16T19:19:10;10.37;;;4.93;;
9667;SDS011;4872;48.316;10.650;2022-10-16T19:21:38;6.97;;;4.23;;
9667;SDS011;4872;48.316;10.650;2022-10-16T19:24:07;4.83;;;3.40;;
9667;SDS011;4872;48.316;10.650;2022-10-16T19:26:36;5.30;;;3.50;;
9667;SDS011;4872;48.316;10.650;2022-10-16T19:29:04;7.80;;;3.67;;
9667;SDS011;4872;48.316;10.650;2022-10-16T19:31:31;5.63;;;3.30;;
9667;SDS011;4872;48.316;10.650;2022-10-16T19:33:59;7.87;;;4.47;;
9667;SDS011;4872;48.316;10.650;2022-10-16T19:36:28;6.20;;;4.10;;
9667;SDS011;4872;48.316;10.650;2022-10-16T19:38:56;7.90;;;4.20;;